createdAt,value
2023-03-01T00:01:51.825Z,12.20
2023-03-01T00:08:15.087Z,12.70
2023-03-01T00:10:49.223Z,13.90
2023-03-01T00:13:18.349Z,11.70
2023-03-01T00:15:47.690Z,11.50
2023-03-01T00:18:15.972Z,12.00
2023-03-01T00:20:51.106Z,11.60
2023-03-01T00:23:19.954Z,12.90
2023-03-01T00:25:48.545Z,12.50
2023-03-01T00:28:17.199Z,10.60
2023-03-01T00:30:45.398Z,13.10
2023-03-01T00:33:14.077Z,12.30
2023-03-01T00:35:42.824Z,12.40
2023-03-01T00:38:11.514Z,13.00
2023-03-01T00:40:39.645Z,12.10
2023-03-01T00:43:11.362Z,13.80
2023-03-01T00:45:39.614Z,13.20
2023-03-01T00:48:08.059Z,11.50
2023-03-01T00:50:37.594Z,13.60
2023-03-01T00:53:06.350Z,12.00
2023-03-01T00:55:35.060Z,11.90
2023-03-01T00:58:03.840Z,13.70
2023-03-01T01:00:36.211Z,13.00
2023-03-01T01:03:04.469Z,11.40
2023-03-01T01:05:35.796Z,11.60
2023-03-01T01:10:35.561Z,14.10
2023-03-01T01:13:06.001Z,12.10
2023-03-01T01:15:35.364Z,12.80
2023-03-01T01:18:04.077Z,13.40
2023-03-01T01:20:34.638Z,12.70
2023-03-01T01:23:03.194Z,13.60
2023-03-01T01:25:35.979Z,13.10
2023-03-01T01:28:04.675Z,13.30
2023-03-01T01:30:33.426Z,13.10
2023-03-01T01:33:02.073Z,13.60
2023-03-01T01:35:30.808Z,13.40
2023-03-01T01:38:02.911Z,13.10
2023-03-01T01:40:31.499Z,13.60
2023-03-01T01:42:59.661Z,13.20
2023-03-01T01:45:29.733Z,13.10
2023-03-01T01:48:01.162Z,13.20
2023-03-01T01:50:38.888Z,12.70
2023-03-01T01:53:13.798Z,11.90
2023-03-01T01:55:46.885Z,13.70
2023-03-01T01:58:16.798Z,12.80
2023-03-01T02:00:46.003Z,12.20
2023-03-01T02:03:19.085Z,12.70
2023-03-01T02:06:05.356Z,13.10
2023-03-01T02:08:35.895Z,13.30
2023-03-01T02:11:07.308Z,12.10
2023-03-01T02:13:39.496Z,13.00
2023-03-01T02:16:11.760Z,11.90
2023-03-01T02:18:41.611Z,11.90
2023-03-01T02:21:24.752Z,12.10
2023-03-01T02:23:56.831Z,13.90
2023-03-01T02:26:48.720Z,12.00
2023-03-01T02:29:17.041Z,13.90
2023-03-01T02:31:46.146Z,13.20
2023-03-01T02:34:21.680Z,13.40
2023-03-01T02:36:52.208Z,13.10
2023-03-01T02:39:27.621Z,13.50
2023-03-01T02:41:56.031Z,13.00
2023-03-01T02:44:24.799Z,13.90
2023-03-01T02:46:55.468Z,12.10
2023-03-01T02:49:26.466Z,13.40
2023-03-01T02:54:32.451Z,13.30
2023-03-01T02:57:01.313Z,13.40
2023-03-01T02:59:32.919Z,13.40
2023-03-01T03:02:01.972Z,14.10
2023-03-01T03:04:30.551Z,13.30
2023-03-01T03:06:59.536Z,11.50
2023-03-01T03:09:27.790Z,13.20
2023-03-01T03:11:56.259Z,14.00
2023-03-01T03:14:25.490Z,13.40
2023-03-01T03:16:53.842Z,13.60
2023-03-01T03:19:22.203Z,13.30
2023-03-01T03:21:50.632Z,14.00
2023-03-01T03:24:21.011Z,11.80
2023-03-01T03:26:49.589Z,12.60
2023-03-01T03:29:17.731Z,15.60
2023-03-01T03:32:05.776Z,12.40
2023-03-01T03:37:25.364Z,13.60
2023-03-01T03:39:55.876Z,14.20
2023-03-01T03:42:24.085Z,13.00
2023-03-01T03:44:52.235Z,14.30
2023-03-01T03:47:21.016Z,13.80
2023-03-01T03:49:49.113Z,14.80
2023-03-01T03:52:18.069Z,13.20
2023-03-01T03:54:46.431Z,13.60
2023-03-01T03:57:14.555Z,13.80
2023-03-01T03:59:42.834Z,14.60
2023-03-01T04:04:43.907Z,13.30
2023-03-01T04:07:12.044Z,12.70
2023-03-01T04:09:40.651Z,13.10
2023-03-01T04:12:08.830Z,13.70
2023-03-01T04:14:37.454Z,11.90
2023-03-01T04:17:06.417Z,13.40
2023-03-01T04:19:37.221Z,14.70
2023-03-01T04:22:10.399Z,14.70
2023-03-01T04:24:38.867Z,16.10
2023-03-01T04:27:07.068Z,14.20
2023-03-01T04:29:35.287Z,12.10
2023-03-01T04:32:04.406Z,15.00
2023-03-01T04:34:32.841Z,14.90
2023-03-01T04:37:01.669Z,14.20
2023-03-01T04:39:30.046Z,13.80
2023-03-01T04:41:58.274Z,15.30
2023-03-01T04:44:26.522Z,14.40
2023-03-01T04:46:54.726Z,15.20
2023-03-01T04:49:22.848Z,14.50
2023-03-01T04:51:51.451Z,15.30
2023-03-01T04:56:52.211Z,11.80
2023-03-01T04:59:23.572Z,13.70
2023-03-01T05:01:52.395Z,13.50
2023-03-01T05:04:20.561Z,16.40
2023-03-01T05:06:48.791Z,15.40
2023-03-01T05:09:17.164Z,11.90
2023-03-01T05:11:45.819Z,13.70
2023-03-01T05:14:14.664Z,13.50
2023-03-01T05:16:43.081Z,13.50
2023-03-01T05:19:16.510Z,13.40
2023-03-01T05:22:03.364Z,16.30
2023-03-01T05:24:36.325Z,13.20
2023-03-01T05:27:05.172Z,14.00
2023-03-01T05:29:37.074Z,16.60
2023-03-01T05:32:05.593Z,16.40
2023-03-01T05:34:34.959Z,16.10
2023-03-01T05:37:03.515Z,14.20
2023-03-01T05:39:32.644Z,16.30
2023-03-01T05:42:02.195Z,14.60
2023-03-01T05:44:31.468Z,12.30
2023-03-01T05:46:59.963Z,15.20
2023-03-01T05:49:28.551Z,16.80
2023-03-01T05:51:57.012Z,15.00
2023-03-01T05:54:25.358Z,15.90
2023-03-01T05:56:53.869Z,16.00
2023-03-01T05:59:22.042Z,16.10
2023-03-01T06:01:51.146Z,15.40
2023-03-01T06:04:19.323Z,14.70
2023-03-01T06:06:47.712Z,13.20
2023-03-01T06:09:20.548Z,12.90
2023-03-01T06:11:48.757Z,13.40
2023-03-01T06:14:17.022Z,15.60
2023-03-01T06:16:49.173Z,14.70
2023-03-01T06:19:17.482Z,12.40
2023-03-01T06:21:45.603Z,15.70
2023-03-01T06:24:14.181Z,15.30
2023-03-01T06:26:42.968Z,16.10
2023-03-01T06:29:11.262Z,15.50
2023-03-01T06:31:40.360Z,15.80
2023-03-01T06:34:08.532Z,14.80
2023-03-01T06:36:37.124Z,15.40
2023-03-01T06:39:08.376Z,15.20
2023-03-01T06:41:36.703Z,17.30
2023-03-01T06:44:05.162Z,16.10
2023-03-01T06:46:34.442Z,16.40
2023-03-01T06:49:05.602Z,17.70
2023-03-01T06:51:34.049Z,18.50
2023-03-01T06:54:02.573Z,12.80
2023-03-01T06:56:32.254Z,17.50
2023-03-01T06:59:00.749Z,19.20
2023-03-01T07:01:29.595Z,20.60
2023-03-01T07:03:58.003Z,19.90
2023-03-01T07:06:26.186Z,18.90
2023-03-01T07:08:55.984Z,20.20
2023-03-01T07:11:25.261Z,15.90
2023-03-01T07:13:59.679Z,17.10
2023-03-01T07:16:28.290Z,17.40
2023-03-01T07:18:59.178Z,17.60
2023-03-01T07:21:29.896Z,18.80
2023-03-01T07:23:58.233Z,17.00
2023-03-01T07:26:27.376Z,17.80
2023-03-01T07:28:55.583Z,16.50
2023-03-01T07:31:24.068Z,20.20
2023-03-01T07:33:57.281Z,16.60
2023-03-01T07:36:26.538Z,16.60
2023-03-01T07:38:57.264Z,17.80
2023-03-01T07:41:26.141Z,17.50
2023-03-01T07:43:54.442Z,17.90
2023-03-01T07:46:22.766Z,19.60
2023-03-01T07:48:52.739Z,19.80
2023-03-01T07:51:23.265Z,19.20
2023-03-01T07:53:52.093Z,18.40
2023-03-01T07:56:20.739Z,19.30
2023-03-01T07:58:51.004Z,18.90
2023-03-01T08:01:21.731Z,19.10
2023-03-01T08:03:50.455Z,18.50
2023-03-01T08:06:18.976Z,17.90
2023-03-01T08:08:48.368Z,15.80
2023-03-01T08:11:17.506Z,16.70
2023-03-01T08:14:06.884Z,16.10
2023-03-01T08:16:40.538Z,18.00
2023-03-01T08:19:10.408Z,16.50
2023-03-01T08:21:39.049Z,15.90
2023-03-01T08:24:11.253Z,18.50
2023-03-01T08:26:40.435Z,17.70
2023-03-01T08:29:09.209Z,16.20
2023-03-01T08:31:40.157Z,15.00
2023-03-01T08:34:11.480Z,15.30
2023-03-01T08:36:43.586Z,14.00
2023-03-01T08:39:14.266Z,16.60
2023-03-01T08:41:43.462Z,15.70
2023-03-01T08:44:12.724Z,17.90
2023-03-01T08:46:42.346Z,16.00
2023-03-01T08:49:20.509Z,15.40
2023-03-01T08:51:48.888Z,16.40
2023-03-01T08:54:19.502Z,17.70
2023-03-01T08:56:50.555Z,16.30
2023-03-01T08:59:21.272Z,16.40
2023-03-01T09:01:50.414Z,15.70
2023-03-01T09:04:18.756Z,15.10
2023-03-01T09:06:50.719Z,14.50
2023-03-01T09:09:19.387Z,14.80
2023-03-01T09:11:47.907Z,16.20
2023-03-01T09:14:19.896Z,16.00
2023-03-01T09:16:49.098Z,15.30
2023-03-01T09:19:17.652Z,14.90
2023-03-01T09:21:53.685Z,15.70
2023-03-01T09:24:22.598Z,15.80
2023-03-01T09:26:51.841Z,16.10
2023-03-01T09:29:20.818Z,15.20
2023-03-01T09:31:52.049Z,15.50
2023-03-01T09:34:24.489Z,14.30
2023-03-01T09:36:53.150Z,13.60
2023-03-01T09:39:21.765Z,12.70
2023-03-01T09:41:55.651Z,14.00
2023-03-01T09:44:43.066Z,14.20
2023-03-01T09:47:15.970Z,12.00
2023-03-01T09:49:49.830Z,12.00
2023-03-01T09:52:40.109Z,14.00
2023-03-01T09:55:16.412Z,14.50
2023-03-01T09:57:57.240Z,14.30
2023-03-01T10:00:38.323Z,13.40
2023-03-01T10:03:32.175Z,12.30
2023-03-01T10:06:05.627Z,11.30
2023-03-01T10:08:58.175Z,11.40
2023-03-01T10:11:41.304Z,9.90
2023-03-01T10:14:29.309Z,12.10
2023-03-01T10:17:06.120Z,12.00
2023-03-01T10:19:43.943Z,11.30
2023-03-01T10:22:47.953Z,11.70
2023-03-01T10:25:16.799Z,11.80
2023-03-01T10:27:55.263Z,12.90
2023-03-01T10:30:24.360Z,11.90
2023-03-01T10:32:53.517Z,11.10
2023-03-01T10:35:24.165Z,12.40
2023-03-01T10:37:59.681Z,10.70
2023-03-01T10:40:27.898Z,13.70
2023-03-01T10:42:59.002Z,13.90
2023-03-01T10:45:37.600Z,13.50
2023-03-01T10:48:24.844Z,11.80
2023-03-01T10:51:00.364Z,13.00
2023-03-01T10:53:44.621Z,13.10
2023-03-01T10:56:17.042Z,11.70
2023-03-01T10:59:05.705Z,12.30
2023-03-01T11:01:36.480Z,12.20
2023-03-01T11:04:08.777Z,11.80
2023-03-01T11:06:38.861Z,12.30
2023-03-01T11:09:22.841Z,11.70
2023-03-01T11:11:58.926Z,13.60
2023-03-01T11:14:32.266Z,12.50
2023-03-01T11:17:05.109Z,13.30
2023-03-01T11:19:33.997Z,12.90
2023-03-01T11:22:12.298Z,13.50
2023-03-01T11:24:43.673Z,14.30
2023-03-01T11:27:19.872Z,12.80
2023-03-01T11:29:53.125Z,13.10
2023-03-01T11:32:21.454Z,12.70
2023-03-01T11:34:54.691Z,13.70
2023-03-01T11:37:29.984Z,13.90
2023-03-01T11:40:19.050Z,12.80
2023-03-01T11:43:17.562Z,13.80
2023-03-01T11:46:26.843Z,14.30
2023-03-01T11:49:13.591Z,13.80
2023-03-01T11:52:13.688Z,13.40
2023-03-01T11:55:01.487Z,15.10
2023-03-01T11:57:45.104Z,15.20
2023-03-01T12:00:54.848Z,15.70
2023-03-01T12:03:42.642Z,14.80
2023-03-01T12:06:24.131Z,11.50
2023-03-01T12:09:15.411Z,10.20
2023-03-01T12:12:05.917Z,10.10
2023-03-01T12:14:53.276Z,9.40
2023-03-01T12:17:56.947Z,8.00
2023-03-01T12:21:03.310Z,8.20
2023-03-01T12:23:35.028Z,8.80
2023-03-01T12:26:09.206Z,8.80
2023-03-01T12:29:02.199Z,9.70
2023-03-01T12:32:04.452Z,10.70
2023-03-01T12:34:37.406Z,10.80
2023-03-01T12:37:18.903Z,11.70
2023-03-01T12:40:22.012Z,11.00
2023-03-01T12:43:00.145Z,10.20
2023-03-01T12:45:58.085Z,9.50
2023-03-01T12:49:11.238Z,9.80
2023-03-01T12:51:40.786Z,10.10
2023-03-01T12:54:29.195Z,10.40
2023-03-01T12:56:58.763Z,10.30
2023-03-01T12:59:34.125Z,10.60
2023-03-01T13:02:28.720Z,11.40
2023-03-01T13:05:15.130Z,12.00
2023-03-01T13:08:14.682Z,10.50
2023-03-01T13:10:50.835Z,9.70
2023-03-01T13:13:27.298Z,9.80
2023-03-01T13:15:56.187Z,12.10
2023-03-01T13:18:26.754Z,11.80
2023-03-01T13:20:56.111Z,11.50
2023-03-01T13:23:27.980Z,12.50
2023-03-01T13:26:00.279Z,13.70
2023-03-01T13:28:35.276Z,13.50
2023-03-01T13:31:08.178Z,14.40
2023-03-01T13:33:45.528Z,16.10
2023-03-01T13:36:31.029Z,16.40
2023-03-01T13:39:04.071Z,15.30
2023-03-01T13:41:44.530Z,17.10
2023-03-01T13:44:22.830Z,17.00
2023-03-01T13:46:57.560Z,16.50
2023-03-01T13:49:41.069Z,18.30
2023-03-01T13:53:01.337Z,17.00
2023-03-01T13:55:38.264Z,16.30
2023-03-01T13:58:33.641Z,16.00
2023-03-01T14:01:04.352Z,16.70
2023-03-01T14:06:21.088Z,16.40
2023-03-01T14:08:51.180Z,17.70
2023-03-01T14:11:28.602Z,15.80
2023-03-01T14:14:31.235Z,16.80
2023-03-01T14:19:37.952Z,16.40
2023-03-01T14:22:23.759Z,17.10
2023-03-01T14:24:53.190Z,17.00
2023-03-01T14:27:21.590Z,18.90
2023-03-01T14:30:17.256Z,17.60
2023-03-01T14:32:55.980Z,17.70
2023-03-01T14:35:51.244Z,15.60
2023-03-01T14:38:30.350Z,17.00
2023-03-01T14:41:00.724Z,15.40
2023-03-01T14:43:29.016Z,17.00
2023-03-01T14:46:06.654Z,15.00
2023-03-01T14:48:35.533Z,14.30
2023-03-01T14:51:04.042Z,16.50
2023-03-01T14:53:42.759Z,16.00
2023-03-01T14:56:18.665Z,15.20
2023-03-01T14:58:54.558Z,15.20
2023-03-01T15:01:22.757Z,13.70
2023-03-01T15:03:51.560Z,14.10
2023-03-01T15:06:21.667Z,14.80
2023-03-01T15:08:52.011Z,13.60
2023-03-01T15:11:26.122Z,11.60
2023-03-01T15:13:55.910Z,12.30
2023-03-01T15:16:25.486Z,12.50
2023-03-01T15:19:17.100Z,11.60
2023-03-01T15:21:46.641Z,12.10
2023-03-01T15:24:21.868Z,12.20
2023-03-01T15:26:56.333Z,11.30
2023-03-01T15:29:30.965Z,11.40
2023-03-01T15:31:59.965Z,10.20
2023-03-01T15:34:40.488Z,11.20
2023-03-01T15:37:38.266Z,12.00
2023-03-01T15:40:34.536Z,11.70
2023-03-01T15:43:05.197Z,11.90
2023-03-01T15:45:39.583Z,11.80
2023-03-01T15:48:16.469Z,12.70
2023-03-01T15:50:45.247Z,12.60
2023-03-01T15:53:15.576Z,13.10
2023-03-01T15:55:45.003Z,12.50
2023-03-01T15:58:25.067Z,12.90
2023-03-01T16:01:01.226Z,13.80
2023-03-01T16:03:30.510Z,13.00
2023-03-01T16:05:59.172Z,13.90
2023-03-01T16:08:27.436Z,12.30
2023-03-01T16:10:57.304Z,11.30
2023-03-01T16:13:28.316Z,12.20
2023-03-01T16:16:04.531Z,12.80
2023-03-01T16:18:33.116Z,10.70
2023-03-01T16:21:01.983Z,12.10
2023-03-01T16:23:31.519Z,12.50
2023-03-01T16:26:00.879Z,11.10
2023-03-01T16:28:30.786Z,10.80
2023-03-01T16:30:59.980Z,10.30
2023-03-01T16:33:32.863Z,9.60
2023-03-01T16:36:11.026Z,9.40
2023-03-01T16:38:39.824Z,8.40
2023-03-01T16:41:12.409Z,9.10
2023-03-01T16:43:42.189Z,9.20
2023-03-01T16:46:14.762Z,9.40
2023-03-01T16:48:43.406Z,9.50
2023-03-01T16:51:13.062Z,9.80
2023-03-01T16:53:47.837Z,9.50
2023-03-01T16:56:19.588Z,9.30
2023-03-01T16:58:47.946Z,10.20
2023-03-01T17:01:25.663Z,10.10
2023-03-01T17:03:54.402Z,9.00
2023-03-01T17:06:24.580Z,8.50
2023-03-01T17:08:53.505Z,8.10
2023-03-01T17:11:21.931Z,7.30
2023-03-01T17:13:56.682Z,7.00
2023-03-01T17:16:25.537Z,8.20
2023-03-01T17:18:54.149Z,6.90
2023-03-01T17:21:22.519Z,5.90
2023-03-01T17:23:52.343Z,6.30
2023-03-01T17:26:20.687Z,6.00
2023-03-01T17:28:52.010Z,5.80
2023-03-01T17:31:20.607Z,6.20
2023-03-01T17:33:50.128Z,6.70
2023-03-01T17:36:19.107Z,6.70
2023-03-01T17:38:47.949Z,5.90
2023-03-01T17:41:19.225Z,5.80
2023-03-01T17:43:49.145Z,6.20
2023-03-01T17:46:17.548Z,5.40
2023-03-01T17:48:50.243Z,5.50
2023-03-01T17:51:43.216Z,4.90
2023-03-01T17:54:12.572Z,4.50
2023-03-01T17:56:42.779Z,4.80
2023-03-01T17:59:17.934Z,3.60
2023-03-01T18:01:46.391Z,3.70
2023-03-01T18:04:14.803Z,4.40
2023-03-01T18:06:43.768Z,4.20
2023-03-01T18:09:12.347Z,3.80
2023-03-01T18:11:42.779Z,3.90
2023-03-01T18:14:12.391Z,4.60
2023-03-01T18:16:40.582Z,3.90
2023-03-01T18:19:12.425Z,3.90
2023-03-01T18:21:41.414Z,3.60
2023-03-01T18:24:09.570Z,4.00
2023-03-01T18:26:39.909Z,3.50
2023-03-01T18:29:08.614Z,4.30
2023-03-01T18:31:41.991Z,3.40
2023-03-01T18:34:10.957Z,4.00
2023-03-01T18:36:41.363Z,3.30
2023-03-01T18:39:09.763Z,3.70
2023-03-01T18:41:37.933Z,4.20
2023-03-01T18:44:06.948Z,3.50
2023-03-01T18:46:37.939Z,3.40
2023-03-01T18:49:07.008Z,4.40
2023-03-01T18:51:36.847Z,5.40
2023-03-01T18:54:11.262Z,4.00
2023-03-01T18:59:09.131Z,4.80
2023-03-01T19:01:38.221Z,3.90
2023-03-01T19:04:06.799Z,4.30
2023-03-01T19:06:35.567Z,4.50
2023-03-01T19:09:08.047Z,4.20
2023-03-01T19:11:36.547Z,4.20
2023-03-01T19:14:05.986Z,4.20
2023-03-01T19:16:35.122Z,4.60
2023-03-01T19:19:05.198Z,4.90
2023-03-01T19:21:34.219Z,4.40
2023-03-01T19:24:03.062Z,4.60
2023-03-01T19:26:32.202Z,7.10
2023-03-01T19:29:06.646Z,4.60
2023-03-01T19:31:35.730Z,3.80
2023-03-01T19:34:12.572Z,4.60
2023-03-01T19:36:43.456Z,4.40
2023-03-01T19:39:14.116Z,5.40
2023-03-01T19:41:43.512Z,4.70
2023-03-01T19:44:13.917Z,4.90
2023-03-01T19:46:44.091Z,4.50
2023-03-01T19:49:12.462Z,6.40
2023-03-01T19:51:40.977Z,5.80
2023-03-01T19:54:10.183Z,5.50
2023-03-01T19:56:39.116Z,6.30
2023-03-01T19:59:07.748Z,7.20
2023-03-01T20:01:38.025Z,6.40
2023-03-01T20:04:09.693Z,6.80
2023-03-01T20:06:39.241Z,6.40
2023-03-01T20:09:20.362Z,6.90
2023-03-01T20:11:52.271Z,6.40
2023-03-01T20:14:27.301Z,7.00
2023-03-01T20:16:56.009Z,6.90
2023-03-01T20:19:24.993Z,6.90
2023-03-01T20:21:56.665Z,7.50
2023-03-01T20:24:26.168Z,7.70
2023-03-01T20:26:54.474Z,7.30
2023-03-01T20:29:23.110Z,8.20
2023-03-01T20:31:51.938Z,8.40
2023-03-01T20:34:24.858Z,7.20
2023-03-01T20:36:53.530Z,6.10
2023-03-01T20:39:26.624Z,6.50
2023-03-01T20:41:58.118Z,6.20
2023-03-01T20:44:28.014Z,5.70
2023-03-01T20:46:57.365Z,5.80
2023-03-01T20:49:26.340Z,5.90
2023-03-01T20:51:54.698Z,5.70
2023-03-01T20:54:27.985Z,5.10
2023-03-01T20:56:57.330Z,5.30
2023-03-01T20:59:26.142Z,5.30
2023-03-01T21:01:56.131Z,4.90
2023-03-01T21:04:24.716Z,5.00
2023-03-01T21:06:54.331Z,5.80
2023-03-01T21:09:22.779Z,5.10
2023-03-01T21:11:53.110Z,5.20
2023-03-01T21:14:22.742Z,5.30
2023-03-01T21:16:51.060Z,5.10
2023-03-01T21:19:22.804Z,6.00
2023-03-01T21:21:51.979Z,6.00
2023-03-01T21:24:22.779Z,5.80
2023-03-01T21:26:51.452Z,5.70
2023-03-01T21:29:19.711Z,5.70
2023-03-01T21:31:48.142Z,6.10
2023-03-01T21:34:16.550Z,7.10
2023-03-01T21:36:45.038Z,6.50
2023-03-01T21:39:14.941Z,6.90
2023-03-01T21:41:43.132Z,7.00
2023-03-01T21:44:11.569Z,8.10
2023-03-01T21:46:40.149Z,8.80
2023-03-01T21:49:09.996Z,8.60
2023-03-01T21:51:38.269Z,7.70
2023-03-01T21:54:12.635Z,8.70
2023-03-01T21:56:41.657Z,9.00
2023-03-01T21:59:18.733Z,8.90
2023-03-01T22:01:48.196Z,8.60
2023-03-01T22:04:16.948Z,9.00
2023-03-01T22:06:46.594Z,8.30
2023-03-01T22:09:17.341Z,7.90
2023-03-01T22:11:51.780Z,9.10
2023-03-01T22:14:21.395Z,9.00
2023-03-01T22:16:51.691Z,9.30
2023-03-01T22:19:21.463Z,9.20
2023-03-01T22:21:52.012Z,10.10
2023-03-01T22:24:23.073Z,9.90
2023-03-01T22:26:52.151Z,9.80
2023-03-01T22:29:23.789Z,10.00
2023-03-01T22:31:53.000Z,10.10
2023-03-01T22:34:22.747Z,11.30
2023-03-01T22:36:53.509Z,10.00
2023-03-01T22:39:22.603Z,9.90
2023-03-01T22:41:51.422Z,9.00
2023-03-01T22:44:20.906Z,9.70
2023-03-01T22:46:51.724Z,9.10
2023-03-01T22:49:20.609Z,8.90
2023-03-01T22:51:49.076Z,10.00
2023-03-01T22:54:17.928Z,8.90
2023-03-01T22:56:46.759Z,9.80
2023-03-01T22:59:15.942Z,8.90
2023-03-01T23:01:48.148Z,7.70
2023-03-01T23:04:18.414Z,8.30
2023-03-01T23:06:56.132Z,8.00
2023-03-01T23:09:32.887Z,8.40
2023-03-01T23:12:02.611Z,8.20
2023-03-01T23:14:37.485Z,7.40
2023-03-01T23:17:08.114Z,7.90
2023-03-01T23:19:36.332Z,8.10
2023-03-01T23:22:05.036Z,7.90
2023-03-01T23:24:34.056Z,7.40
2023-03-01T23:27:02.726Z,6.80
2023-03-01T23:29:32.400Z,6.80
2023-03-01T23:32:00.708Z,7.00
2023-03-01T23:34:29.233Z,7.10
2023-03-01T23:36:58.824Z,6.70
2023-03-01T23:39:27.892Z,7.20
2023-03-01T23:41:56.982Z,6.70
2023-03-01T23:44:27.850Z,6.80
2023-03-01T23:46:56.138Z,7.90
2023-03-01T23:49:25.005Z,7.90
2023-03-01T23:51:53.362Z,6.90
2023-03-01T23:54:22.790Z,7.70
2023-03-01T23:56:52.253Z,7.40
2023-03-01T23:59:22.542Z,7.70
